sensor_id;sensor_type;location;lat;lon;timestamp;P1;durP1;ratioP1;P2;durP2;ratioP2
30096;SDS011;16915;51.466;3.610;2023-09-07T00:01:25;12.70;;;10.68;;
30096;SDS011;16915;51.466;3.610;2023-09-07T00:03:51;11.68;;;10.43;;
30096;SDS011;16915;51.466;3.610;2023-09-07T00:06:16;11.98;;;10.70;;
30096;SDS011;16915;51.466;3.610;2023-09-07T00:08:43;12.73;;;10.40;;
30096;SDS011;16915;51.466;3.610;2023-09-07T00:11:09;15.63;;;10.43;;
30096;SDS011;16915;51.466;3.610;2023-09-07T00:13:35;11.50;;;10.20;;
30096;SDS011;16915;51.466;3.610;2023-09-07T00:16:04;15.23;;;11.65;;
30096;SDS011;16915;51.466;3.610;2023-09-07T00:18:30;17.23;;;11.38;;
30096;SDS011;16915;51.466;3.610;2023-09-07T00:20:56;13.02;;;10.90;;
30096;SDS011;16915;51.466;3.610;2023-09-07T00:23:22;14.18;;;11.07;;
30096;SDS011;16915;51.466;3.610;2023-09-07T00:25:47;12.40;;;11.02;;
30096;SDS011;16915;51.466;3.610;2023-09-07T00:28:13;12.80;;;11.25;;
30096;SDS011;16915;51.466;3.610;2023-09-07T00:30:39;17.20;;;13.30;;
30096;SDS011;16915;51.466;3.610;2023-09-07T00:33:05;14.65;;;11.50;;
30096;SDS011;16915;51.466;3.610;2023-09-07T00:35:31;16.50;;;12.02;;
30096;SDS011;16915;51.466;3.610;2023-09-07T00:37:57;16.23;;;11.88;;
30096;SDS011;16915;51.466;3.610;2023-09-07T00:40:22;15.30;;;12.25;;
30096;SDS011;16915;51.466;3.610;2023-09-07T00:42:48;16.83;;;11.90;;
30096;SDS011;16915;51.466;3.610;2023-09-07T00:45:14;16.60;;;12.20;;
30096;SDS011;16915;51.466;3.610;2023-09-07T00:47:40;14.63;;;12.02;;
30096;SDS011;16915;51.466;3.610;2023-09-07T00:50:06;15.48;;;12.35;;
30096;SDS011;16915;51.466;3.610;2023-09-07T00:52:33;16.75;;;12.43;;
30096;SDS011;16915;51.466;3.610;2023-09-07T00:55:00;16.60;;;12.25;;
30096;SDS011;16915;51.466;3.610;2023-09-07T00:57:27;22.50;;;13.18;;
30096;SDS011;16915;51.466;3.610;2023-09-07T00:59:53;17.88;;;13.05;;
30096;SDS011;16915;51.466;3.610;2023-09-07T01:02:19;15.45;;;11.38;;
30096;SDS011;16915;51.466;3.610;2023-09-07T01:04:44;18.02;;;11.95;;
30096;SDS011;16915;51.466;3.610;2023-09-07T01:10:18;14.07;;;11.80;;
30096;SDS011;16915;51.466;3.610;2023-09-07T01:12:43;17.63;;;12.15;;
30096;SDS011;16915;51.466;3.610;2023-09-07T01:15:09;15.23;;;11.27;;
30096;SDS011;16915;51.466;3.610;2023-09-07T01:17:35;14.05;;;10.80;;
30096;SDS011;16915;51.466;3.610;2023-09-07T01:20:04;15.50;;;11.52;;
30096;SDS011;16915;51.466;3.610;2023-09-07T01:22:36;16.08;;;11.80;;
30096;SDS011;16915;51.466;3.610;2023-09-07T01:25:04;15.85;;;11.10;;
30096;SDS011;16915;51.466;3.610;2023-09-07T01:27:31;16.33;;;11.77;;
30096;SDS011;16915;51.466;3.610;2023-09-07T01:29:58;14.80;;;11.13;;
30096;SDS011;16915;51.466;3.610;2023-09-07T01:32:24;13.77;;;9.18;;
30096;SDS011;16915;51.466;3.610;2023-09-07T01:34:52;12.65;;;9.75;;
30096;SDS011;16915;51.466;3.610;2023-09-07T01:37:23;14.05;;;10.18;;
30096;SDS011;16915;51.466;3.610;2023-09-07T01:39:49;16.23;;;11.63;;
30096;SDS011;16915;51.466;3.610;2023-09-07T01:42:15;15.75;;;11.93;;
30096;SDS011;16915;51.466;3.610;2023-09-07T01:44:40;14.30;;;11.73;;
30096;SDS011;16915;51.466;3.610;2023-09-07T01:47:06;14.05;;;11.40;;
30096;SDS011;16915;51.466;3.610;2023-09-07T01:49:32;14.25;;;11.07;;
30096;SDS011;16915;51.466;3.610;2023-09-07T01:51:57;12.45;;;11.05;;
30096;SDS011;16915;51.466;3.610;2023-09-07T01:54:23;18.48;;;11.63;;
30096;SDS011;16915;51.466;3.610;2023-09-07T01:56:49;15.30;;;11.80;;
30096;SDS011;16915;51.466;3.610;2023-09-07T01:59:14;12.80;;;11.13;;
30096;SDS011;16915;51.466;3.610;2023-09-07T02:01:40;12.35;;;10.20;;
30096;SDS011;16915;51.466;3.610;2023-09-07T02:04:05;13.93;;;11.15;;
30096;SDS011;16915;51.466;3.610;2023-09-07T02:06:31;13.35;;;11.07;;
30096;SDS011;16915;51.466;3.610;2023-09-07T02:08:57;12.95;;;10.27;;
30096;SDS011;16915;51.466;3.610;2023-09-07T02:11:23;11.13;;;9.52;;
30096;SDS011;16915;51.466;3.610;2023-09-07T02:13:48;15.35;;;10.48;;
30096;SDS011;16915;51.466;3.610;2023-09-07T02:16:14;13.98;;;10.45;;
30096;SDS011;16915;51.466;3.610;2023-09-07T02:18:39;12.45;;;10.45;;
30096;SDS011;16915;51.466;3.610;2023-09-07T02:21:08;13.70;;;11.23;;
30096;SDS011;16915;51.466;3.610;2023-09-07T02:23:35;17.02;;;10.63;;
30096;SDS011;16915;51.466;3.610;2023-09-07T02:26:03;11.88;;;10.10;;
30096;SDS011;16915;51.466;3.610;2023-09-07T02:28:29;11.35;;;9.82;;
30096;SDS011;16915;51.466;3.610;2023-09-07T02:31:01;16.33;;;10.13;;
30096;SDS011;16915;51.466;3.610;2023-09-07T02:33:28;13.18;;;9.98;;
30096;SDS011;16915;51.466;3.610;2023-09-07T02:35:54;11.63;;;9.52;;
30096;SDS011;16915;51.466;3.610;2023-09-07T02:38:19;10.25;;;9.20;;
30096;SDS011;16915;51.466;3.610;2023-09-07T02:40:45;10.82;;;9.70;;
30096;SDS011;16915;51.466;3.610;2023-09-07T02:43:11;13.35;;;9.27;;
30096;SDS011;16915;51.466;3.610;2023-09-07T02:45:37;11.18;;;8.80;;
30096;SDS011;16915;51.466;3.610;2023-09-07T02:48:04;11.25;;;9.43;;
30096;SDS011;16915;51.466;3.610;2023-09-07T02:50:31;13.65;;;10.02;;
30096;SDS011;16915;51.466;3.610;2023-09-07T02:52:59;13.77;;;10.43;;
30096;SDS011;16915;51.466;3.610;2023-09-07T02:55:25;10.75;;;9.50;;
30096;SDS011;16915;51.466;3.610;2023-09-07T02:57:56;17.02;;;9.43;;
30096;SDS011;16915;51.466;3.610;2023-09-07T03:00:22;11.75;;;9.65;;
30096;SDS011;16915;51.466;3.610;2023-09-07T03:02:48;13.75;;;9.50;;
30096;SDS011;16915;51.466;3.610;2023-09-07T03:05:15;11.43;;;9.98;;
30096;SDS011;16915;51.466;3.610;2023-09-07T03:07:41;10.65;;;9.52;;
30096;SDS011;16915;51.466;3.610;2023-09-07T03:10:06;14.30;;;8.75;;
30096;SDS011;16915;51.466;3.610;2023-09-07T03:12:33;12.52;;;8.98;;
30096;SDS011;16915;51.466;3.610;2023-09-07T03:14:59;10.65;;;9.15;;
30096;SDS011;16915;51.466;3.610;2023-09-07T03:17:28;12.20;;;9.07;;
30096;SDS011;16915;51.466;3.610;2023-09-07T03:19:54;11.70;;;8.80;;
30096;SDS011;16915;51.466;3.610;2023-09-07T03:22:20;11.02;;;9.27;;
30096;SDS011;16915;51.466;3.610;2023-09-07T03:24:45;13.82;;;9.25;;
30096;SDS011;16915;51.466;3.610;2023-09-07T03:27:11;12.98;;;9.82;;
30096;SDS011;16915;51.466;3.610;2023-09-07T03:29:37;11.25;;;9.52;;
30096;SDS011;16915;51.466;3.610;2023-09-07T03:32:03;11.00;;;8.82;;
30096;SDS011;16915;51.466;3.610;2023-09-07T03:34:29;10.85;;;9.43;;
30096;SDS011;16915;51.466;3.610;2023-09-07T03:36:55;9.48;;;8.48;;
30096;SDS011;16915;51.466;3.610;2023-09-07T03:39:20;9.88;;;8.23;;
30096;SDS011;16915;51.466;3.610;2023-09-07T03:41:47;10.82;;;8.05;;
30096;SDS011;16915;51.466;3.610;2023-09-07T03:44:13;9.18;;;8.05;;
30096;SDS011;16915;51.466;3.610;2023-09-07T03:46:38;13.38;;;7.22;;
30096;SDS011;16915;51.466;3.610;2023-09-07T03:49:07;10.70;;;7.85;;
30096;SDS011;16915;51.466;3.610;2023-09-07T03:51:33;8.68;;;7.78;;
30096;SDS011;16915;51.466;3.610;2023-09-07T03:53:58;12.80;;;7.40;;
30096;SDS011;16915;51.466;3.610;2023-09-07T03:56:24;11.38;;;8.23;;
30096;SDS011;16915;51.466;3.610;2023-09-07T03:58:50;10.27;;;7.80;;
30096;SDS011;16915;51.466;3.610;2023-09-07T04:01:16;9.65;;;7.93;;
30096;SDS011;16915;51.466;3.610;2023-09-07T04:03:41;10.70;;;7.68;;
30096;SDS011;16915;51.466;3.610;2023-09-07T04:06:07;8.88;;;7.72;;
30096;SDS011;16915;51.466;3.610;2023-09-07T04:08:33;8.40;;;7.55;;
30096;SDS011;16915;51.466;3.610;2023-09-07T04:11:02;14.55;;;8.68;;
30096;SDS011;16915;51.466;3.610;2023-09-07T04:13:29;11.30;;;7.90;;
30096;SDS011;16915;51.466;3.610;2023-09-07T04:15:54;13.55;;;7.70;;
30096;SDS011;16915;51.466;3.610;2023-09-07T04:18:20;8.60;;;7.13;;
30096;SDS011;16915;51.466;3.610;2023-09-07T04:20:46;9.52;;;8.15;;
30096;SDS011;16915;51.466;3.610;2023-09-07T04:23:11;9.85;;;7.88;;
30096;SDS011;16915;51.466;3.610;2023-09-07T04:25:37;11.32;;;7.63;;
30096;SDS011;16915;51.466;3.610;2023-09-07T04:28:06;13.00;;;8.45;;
30096;SDS011;16915;51.466;3.610;2023-09-07T04:30:41;11.77;;;9.02;;
30096;SDS011;16915;51.466;3.610;2023-09-07T04:33:07;10.43;;;7.93;;
30096;SDS011;16915;51.466;3.610;2023-09-07T04:35:33;12.00;;;7.80;;
30096;SDS011;16915;51.466;3.610;2023-09-07T04:37:58;11.95;;;7.38;;
30096;SDS011;16915;51.466;3.610;2023-09-07T04:40:24;12.07;;;8.07;;
30096;SDS011;16915;51.466;3.610;2023-09-07T04:42:50;8.82;;;7.82;;
30096;SDS011;16915;51.466;3.610;2023-09-07T04:45:16;11.40;;;8.00;;
30096;SDS011;16915;51.466;3.610;2023-09-07T04:47:42;11.30;;;8.63;;
30096;SDS011;16915;51.466;3.610;2023-09-07T04:50:08;9.38;;;7.65;;
30096;SDS011;16915;51.466;3.610;2023-09-07T04:52:34;13.05;;;8.07;;
30096;SDS011;16915;51.466;3.610;2023-09-07T04:55:01;9.15;;;8.15;;
30096;SDS011;16915;51.466;3.610;2023-09-07T04:57:27;9.30;;;8.25;;
30096;SDS011;16915;51.466;3.610;2023-09-07T04:59:54;27.63;;;8.93;;
30096;SDS011;16915;51.466;3.610;2023-09-07T05:02:19;15.15;;;8.02;;
30096;SDS011;16915;51.466;3.610;2023-09-07T05:04:45;11.00;;;8.25;;
30096;SDS011;16915;51.466;3.610;2023-09-07T05:07:11;10.00;;;7.75;;
30096;SDS011;16915;51.466;3.610;2023-09-07T05:09:37;10.18;;;8.52;;
30096;SDS011;16915;51.466;3.610;2023-09-07T05:12:03;15.60;;;8.65;;
30096;SDS011;16915;51.466;3.610;2023-09-07T05:14:28;12.27;;;8.50;;
30096;SDS011;16915;51.466;3.610;2023-09-07T05:16:54;12.13;;;8.57;;
30096;SDS011;16915;51.466;3.610;2023-09-07T05:19:24;9.50;;;7.75;;
30096;SDS011;16915;51.466;3.610;2023-09-07T05:21:49;8.93;;;7.97;;
30096;SDS011;16915;51.466;3.610;2023-09-07T05:24:15;12.45;;;8.20;;
30096;SDS011;16915;51.466;3.610;2023-09-07T05:26:44;12.20;;;8.60;;
30096;SDS011;16915;51.466;3.610;2023-09-07T05:29:10;12.00;;;8.30;;
30096;SDS011;16915;51.466;3.610;2023-09-07T05:31:36;10.55;;;9.18;;
30096;SDS011;16915;51.466;3.610;2023-09-07T05:34:02;10.25;;;8.07;;
30096;SDS011;16915;51.466;3.610;2023-09-07T05:36:28;9.57;;;7.97;;
30096;SDS011;16915;51.466;3.610;2023-09-07T05:38:54;10.32;;;8.40;;
30096;SDS011;16915;51.466;3.610;2023-09-07T05:41:20;10.02;;;8.48;;
30096;SDS011;16915;51.466;3.610;2023-09-07T05:43:45;12.80;;;9.55;;
30096;SDS011;16915;51.466;3.610;2023-09-07T05:46:11;10.30;;;8.63;;
30096;SDS011;16915;51.466;3.610;2023-09-07T05:48:36;10.10;;;8.52;;
30096;SDS011;16915;51.466;3.610;2023-09-07T05:51:02;11.77;;;8.52;;
30096;SDS011;16915;51.466;3.610;2023-09-07T05:53:28;13.75;;;9.95;;
30096;SDS011;16915;51.466;3.610;2023-09-07T05:55:54;12.10;;;9.95;;
30096;SDS011;16915;51.466;3.610;2023-09-07T05:58:19;15.10;;;11.05;;
30096;SDS011;16915;51.466;3.610;2023-09-07T06:00:45;14.85;;;10.93;;
30096;SDS011;16915;51.466;3.610;2023-09-07T06:03:11;16.08;;;11.50;;
30096;SDS011;16915;51.466;3.610;2023-09-07T06:05:37;13.45;;;11.38;;
30096;SDS011;16915;51.466;3.610;2023-09-07T06:08:03;17.50;;;11.75;;
30096;SDS011;16915;51.466;3.610;2023-09-07T06:10:31;14.13;;;12.32;;
30096;SDS011;16915;51.466;3.610;2023-09-07T06:12:57;18.40;;;12.60;;
30096;SDS011;16915;51.466;3.610;2023-09-07T06:15:22;15.57;;;12.73;;
30096;SDS011;16915;51.466;3.610;2023-09-07T06:17:48;17.48;;;12.27;;
30096;SDS011;16915;51.466;3.610;2023-09-07T06:20:14;16.58;;;12.38;;
30096;SDS011;16915;51.466;3.610;2023-09-07T06:22:40;13.85;;;12.40;;
30096;SDS011;16915;51.466;3.610;2023-09-07T06:25:06;12.30;;;10.35;;
30096;SDS011;16915;51.466;3.610;2023-09-07T06:27:32;16.20;;;11.98;;
30096;SDS011;16915;51.466;3.610;2023-09-07T06:29:58;16.15;;;11.68;;
30096;SDS011;16915;51.466;3.610;2023-09-07T06:32:23;18.35;;;12.60;;
30096;SDS011;16915;51.466;3.610;2023-09-07T06:34:49;16.83;;;12.27;;
30096;SDS011;16915;51.466;3.610;2023-09-07T06:37:14;14.23;;;11.65;;
30096;SDS011;16915;51.466;3.610;2023-09-07T06:39:40;16.83;;;11.70;;
30096;SDS011;16915;51.466;3.610;2023-09-07T06:42:08;18.02;;;10.75;;
30096;SDS011;16915;51.466;3.610;2023-09-07T06:44:35;18.70;;;11.10;;
30096;SDS011;16915;51.466;3.610;2023-09-07T06:47:01;15.18;;;11.45;;
30096;SDS011;16915;51.466;3.610;2023-09-07T06:49:27;13.98;;;11.18;;
30096;SDS011;16915;51.466;3.610;2023-09-07T06:51:54;14.32;;;10.60;;
30096;SDS011;16915;51.466;3.610;2023-09-07T06:54:20;13.75;;;10.35;;
30096;SDS011;16915;51.466;3.610;2023-09-07T06:56:46;11.55;;;9.93;;
30096;SDS011;16915;51.466;3.610;2023-09-07T06:59:12;12.50;;;10.95;;
30096;SDS011;16915;51.466;3.610;2023-09-07T07:01:38;12.02;;;10.77;;
30096;SDS011;16915;51.466;3.610;2023-09-07T07:04:03;16.75;;;10.52;;
30096;SDS011;16915;51.466;3.610;2023-09-07T07:06:29;12.63;;;10.50;;
30096;SDS011;16915;51.466;3.610;2023-09-07T07:08:54;13.60;;;10.57;;
30096;SDS011;16915;51.466;3.610;2023-09-07T07:11:20;12.82;;;10.68;;
30096;SDS011;16915;51.466;3.610;2023-09-07T07:13:46;11.13;;;9.35;;
30096;SDS011;16915;51.466;3.610;2023-09-07T07:16:11;17.25;;;9.18;;
30096;SDS011;16915;51.466;3.610;2023-09-07T07:18:37;23.15;;;9.82;;
30096;SDS011;16915;51.466;3.610;2023-09-07T07:21:04;23.63;;;9.82;;
30096;SDS011;16915;51.466;3.610;2023-09-07T07:23:30;17.38;;;9.98;;
30096;SDS011;16915;51.466;3.610;2023-09-07T07:25:56;15.90;;;9.82;;
30096;SDS011;16915;51.466;3.610;2023-09-07T07:28:21;14.18;;;9.40;;
30096;SDS011;16915;51.466;3.610;2023-09-07T07:30:47;15.93;;;8.80;;
30096;SDS011;16915;51.466;3.610;2023-09-07T07:33:13;14.15;;;9.70;;
30096;SDS011;16915;51.466;3.610;2023-09-07T07:35:39;17.30;;;10.35;;
30096;SDS011;16915;51.466;3.610;2023-09-07T07:38:04;17.95;;;9.65;;
30096;SDS011;16915;51.466;3.610;2023-09-07T07:40:32;16.42;;;9.43;;
30096;SDS011;16915;51.466;3.610;2023-09-07T07:42:58;14.82;;;9.65;;
30096;SDS011;16915;51.466;3.610;2023-09-07T07:45:24;14.98;;;9.82;;
30096;SDS011;16915;51.466;3.610;2023-09-07T07:47:50;20.98;;;10.50;;
30096;SDS011;16915;51.466;3.610;2023-09-07T07:50:16;16.38;;;10.20;;
30096;SDS011;16915;51.466;3.610;2023-09-07T07:52:42;16.15;;;9.60;;
30096;SDS011;16915;51.466;3.610;2023-09-07T07:55:09;16.80;;;9.70;;
30096;SDS011;16915;51.466;3.610;2023-09-07T07:57:34;13.27;;;8.90;;
30096;SDS011;16915;51.466;3.610;2023-09-07T08:00:00;11.63;;;8.98;;
30096;SDS011;16915;51.466;3.610;2023-09-07T08:02:28;15.70;;;8.63;;
30096;SDS011;16915;51.466;3.610;2023-09-07T08:04:53;12.35;;;8.25;;
30096;SDS011;16915;51.466;3.610;2023-09-07T08:07:19;12.93;;;8.43;;
30096;SDS011;16915;51.466;3.610;2023-09-07T08:09:45;15.75;;;8.88;;
30096;SDS011;16915;51.466;3.610;2023-09-07T08:12:10;13.25;;;8.73;;
30096;SDS011;16915;51.466;3.610;2023-09-07T08:14:36;12.13;;;8.50;;
30096;SDS011;16915;51.466;3.610;2023-09-07T08:17:01;14.48;;;8.50;;
30096;SDS011;16915;51.466;3.610;2023-09-07T08:19:27;15.25;;;8.70;;
30096;SDS011;16915;51.466;3.610;2023-09-07T08:21:54;15.00;;;9.25;;
30096;SDS011;16915;51.466;3.610;2023-09-07T08:24:20;11.95;;;8.85;;
30096;SDS011;16915;51.466;3.610;2023-09-07T08:26:45;13.68;;;9.52;;
30096;SDS011;16915;51.466;3.610;2023-09-07T08:29:16;11.55;;;9.20;;
30096;SDS011;16915;51.466;3.610;2023-09-07T08:31:42;9.70;;;8.38;;
30096;SDS011;16915;51.466;3.610;2023-09-07T08:34:10;11.27;;;7.82;;
30096;SDS011;16915;51.466;3.610;2023-09-07T08:36:39;11.60;;;8.63;;
30096;SDS011;16915;51.466;3.610;2023-09-07T08:39:05;8.00;;;6.57;;
30096;SDS011;16915;51.466;3.610;2023-09-07T08:41:37;9.95;;;6.72;;
30096;SDS011;16915;51.466;3.610;2023-09-07T08:44:11;9.05;;;6.97;;
30096;SDS011;16915;51.466;3.610;2023-09-07T08:46:39;7.93;;;5.88;;
30096;SDS011;16915;51.466;3.610;2023-09-07T08:49:06;6.97;;;6.30;;
30096;SDS011;16915;51.466;3.610;2023-09-07T08:51:32;6.43;;;5.82;;
30096;SDS011;16915;51.466;3.610;2023-09-07T08:53:58;8.25;;;6.20;;
30096;SDS011;16915;51.466;3.610;2023-09-07T08:56:24;6.68;;;5.70;;
30096;SDS011;16915;51.466;3.610;2023-09-07T08:58:50;7.40;;;6.03;;
30096;SDS011;16915;51.466;3.610;2023-09-07T09:01:16;6.90;;;6.03;;
30096;SDS011;16915;51.466;3.610;2023-09-07T09:03:46;6.18;;;5.68;;
30096;SDS011;16915;51.466;3.610;2023-09-07T09:06:13;8.07;;;6.50;;
30096;SDS011;16915;51.466;3.610;2023-09-07T09:08:44;8.57;;;6.68;;
30096;SDS011;16915;51.466;3.610;2023-09-07T09:11:14;9.10;;;6.32;;
30096;SDS011;16915;51.466;3.610;2023-09-07T09:13:41;9.00;;;6.70;;
30096;SDS011;16915;51.466;3.610;2023-09-07T09:16:07;7.00;;;6.40;;
30096;SDS011;16915;51.466;3.610;2023-09-07T09:18:33;8.70;;;7.53;;
30096;SDS011;16915;51.466;3.610;2023-09-07T09:20:58;7.97;;;7.18;;
30096;SDS011;16915;51.466;3.610;2023-09-07T09:23:24;8.43;;;7.63;;
30096;SDS011;16915;51.466;3.610;2023-09-07T09:26:00;14.18;;;8.23;;
30096;SDS011;16915;51.466;3.610;2023-09-07T09:28:28;9.95;;;7.10;;
30096;SDS011;16915;51.466;3.610;2023-09-07T09:30:56;9.07;;;7.53;;
30096;SDS011;16915;51.466;3.610;2023-09-07T09:33:23;10.77;;;7.90;;
30096;SDS011;16915;51.466;3.610;2023-09-07T09:35:49;10.95;;;7.82;;
30096;SDS011;16915;51.466;3.610;2023-09-07T09:38:15;16.15;;;7.72;;
30096;SDS011;16915;51.466;3.610;2023-09-07T09:40:42;10.10;;;7.18;;
30096;SDS011;16915;51.466;3.610;2023-09-07T09:43:08;10.10;;;7.45;;
30096;SDS011;16915;51.466;3.610;2023-09-07T09:45:34;8.35;;;6.50;;
30096;SDS011;16915;51.466;3.610;2023-09-07T09:48:00;13.13;;;7.35;;
30096;SDS011;16915;51.466;3.610;2023-09-07T09:50:28;10.70;;;7.20;;
30096;SDS011;16915;51.466;3.610;2023-09-07T09:52:54;8.60;;;6.95;;
30096;SDS011;16915;51.466;3.610;2023-09-07T09:55:21;10.73;;;7.63;;
30096;SDS011;16915;51.466;3.610;2023-09-07T09:57:47;8.27;;;7.47;;
30096;SDS011;16915;51.466;3.610;2023-09-07T10:00:13;9.50;;;8.50;;
30096;SDS011;16915;51.466;3.610;2023-09-07T10:02:43;8.57;;;7.07;;
30096;SDS011;16915;51.466;3.610;2023-09-07T10:05:30;11.20;;;7.68;;
30096;SDS011;16915;51.466;3.610;2023-09-07T10:08:00;9.50;;;6.88;;
30096;SDS011;16915;51.466;3.610;2023-09-07T10:10:34;6.93;;;6.22;;
30096;SDS011;16915;51.466;3.610;2023-09-07T10:13:04;11.93;;;7.45;;
30096;SDS011;16915;51.466;3.610;2023-09-07T10:15:30;6.78;;;6.18;;
30096;SDS011;16915;51.466;3.610;2023-09-07T10:23:18;8.93;;;8.05;;
30096;SDS011;16915;51.466;3.610;2023-09-07T10:25:48;9.85;;;7.97;;
30096;SDS011;16915;51.466;3.610;2023-09-07T10:28:22;12.07;;;8.07;;
30096;SDS011;16915;51.466;3.610;2023-09-07T10:33:31;11.88;;;9.10;;
30096;SDS011;16915;51.466;3.610;2023-09-07T10:35:58;10.18;;;9.27;;
30096;SDS011;16915;51.466;3.610;2023-09-07T10:38:24;10.43;;;9.43;;
30096;SDS011;16915;51.466;3.610;2023-09-07T10:40:56;13.23;;;11.63;;
30096;SDS011;16915;51.466;3.610;2023-09-07T10:43:24;11.77;;;10.70;;
30096;SDS011;16915;51.466;3.610;2023-09-07T10:48:19;14.13;;;10.90;;
30096;SDS011;16915;51.466;3.610;2023-09-07T10:50:46;14.27;;;10.73;;
30096;SDS011;16915;51.466;3.610;2023-09-07T10:53:12;16.92;;;11.27;;
30096;SDS011;16915;51.466;3.610;2023-09-07T10:55:39;11.95;;;10.73;;
30096;SDS011;16915;51.466;3.610;2023-09-07T10:58:06;11.90;;;10.80;;
30096;SDS011;16915;51.466;3.610;2023-09-07T11:00:33;12.55;;;10.65;;
30096;SDS011;16915;51.466;3.610;2023-09-07T11:03:06;14.63;;;9.70;;
30096;SDS011;16915;51.466;3.610;2023-09-07T11:05:34;11.43;;;10.23;;
30096;SDS011;16915;51.466;3.610;2023-09-07T11:08:02;10.93;;;9.38;;
30096;SDS011;16915;51.466;3.610;2023-09-07T11:10:31;9.77;;;8.88;;
30096;SDS011;16915;51.466;3.610;2023-09-07T11:13:01;9.80;;;8.80;;
30096;SDS011;16915;51.466;3.610;2023-09-07T11:15:29;8.40;;;7.60;;
30096;SDS011;16915;51.466;3.610;2023-09-07T11:17:55;9.57;;;7.88;;
30096;SDS011;16915;51.466;3.610;2023-09-07T11:20:21;11.45;;;7.28;;
30096;SDS011;16915;51.466;3.610;2023-09-07T11:22:49;10.48;;;7.53;;
30096;SDS011;16915;51.466;3.610;2023-09-07T11:25:15;10.88;;;7.00;;
30096;SDS011;16915;51.466;3.610;2023-09-07T11:27:40;11.95;;;6.93;;
30096;SDS011;16915;51.466;3.610;2023-09-07T11:30:06;9.52;;;6.45;;
30096;SDS011;16915;51.466;3.610;2023-09-07T11:32:36;9.80;;;6.20;;
30096;SDS011;16915;51.466;3.610;2023-09-07T11:35:02;10.47;;;5.97;;
30096;SDS011;16915;51.466;3.610;2023-09-07T11:37:32;8.20;;;5.40;;
30096;SDS011;16915;51.466;3.610;2023-09-07T11:39:58;5.07;;;4.70;;
30096;SDS011;16915;51.466;3.610;2023-09-07T11:42:24;7.05;;;4.03;;
30096;SDS011;16915;51.466;3.610;2023-09-07T11:44:49;5.93;;;3.90;;
30096;SDS011;16915;51.466;3.610;2023-09-07T11:47:15;4.75;;;4.22;;
30096;SDS011;16915;51.466;3.610;2023-09-07T11:49:41;4.70;;;3.75;;
30096;SDS011;16915;51.466;3.610;2023-09-07T11:52:06;7.32;;;3.83;;
30096;SDS011;16915;51.466;3.610;2023-09-07T11:54:32;6.88;;;3.55;;
30096;SDS011;16915;51.466;3.610;2023-09-07T11:56:58;7.22;;;3.92;;
30096;SDS011;16915;51.466;3.610;2023-09-07T11:59:24;6.20;;;3.65;;
30096;SDS011;16915;51.466;3.610;2023-09-07T12:01:49;13.60;;;3.58;;
30096;SDS011;16915;51.466;3.610;2023-09-07T12:04:15;6.75;;;3.72;;
30096;SDS011;16915;51.466;3.610;2023-09-07T12:06:41;7.40;;;4.80;;
30096;SDS011;16915;51.466;3.610;2023-09-07T12:09:07;6.97;;;4.18;;
30096;SDS011;16915;51.466;3.610;2023-09-07T12:11:34;5.88;;;3.75;;
30096;SDS011;16915;51.466;3.610;2023-09-07T12:14:00;5.28;;;3.85;;
30096;SDS011;16915;51.466;3.610;2023-09-07T12:16:26;5.18;;;3.72;;
30096;SDS011;16915;51.466;3.610;2023-09-07T12:18:52;5.78;;;3.40;;
30096;SDS011;16915;51.466;3.610;2023-09-07T12:21:18;5.80;;;3.70;;
30096;SDS011;16915;51.466;3.610;2023-09-07T12:23:43;5.47;;;3.55;;
30096;SDS011;16915;51.466;3.610;2023-09-07T12:26:09;3.88;;;3.00;;
30096;SDS011;16915;51.466;3.610;2023-09-07T12:28:35;4.68;;;2.67;;
30096;SDS011;16915;51.466;3.610;2023-09-07T12:31:01;3.30;;;3.00;;
30096;SDS011;16915;51.466;3.610;2023-09-07T12:33:27;5.88;;;3.15;;
30096;SDS011;16915;51.466;3.610;2023-09-07T12:35:55;3.85;;;3.17;;
30096;SDS011;16915;51.466;3.610;2023-09-07T12:38:21;3.35;;;3.05;;
30096;SDS011;16915;51.466;3.610;2023-09-07T12:40:52;3.45;;;3.15;;
30096;SDS011;16915;51.466;3.610;2023-09-07T12:43:18;4.00;;;3.30;;
30096;SDS011;16915;51.466;3.610;2023-09-07T12:45:44;3.45;;;3.15;;
30096;SDS011;16915;51.466;3.610;2023-09-07T12:48:10;4.50;;;3.40;;
30096;SDS011;16915;51.466;3.610;2023-09-07T12:50:36;5.32;;;3.03;;
30096;SDS011;16915;51.466;3.610;2023-09-07T12:53:01;3.28;;;2.97;;
30096;SDS011;16915;51.466;3.610;2023-09-07T12:55:27;3.28;;;3.08;;
30096;SDS011;16915;51.466;3.610;2023-09-07T12:57:54;7.88;;;3.45;;
30096;SDS011;16915;51.466;3.610;2023-09-07T13:00:20;7.70;;;3.72;;
30096;SDS011;16915;51.466;3.610;2023-09-07T13:02:46;6.95;;;3.03;;
30096;SDS011;16915;51.466;3.610;2023-09-07T13:05:12;3.88;;;3.55;;
30096;SDS011;16915;51.466;3.610;2023-09-07T13:07:37;3.70;;;3.35;;
30096;SDS011;16915;51.466;3.610;2023-09-07T13:10:04;4.07;;;3.10;;
30096;SDS011;16915;51.466;3.610;2023-09-07T13:12:33;3.17;;;2.90;;
30096;SDS011;16915;51.466;3.610;2023-09-07T13:14:58;3.43;;;3.07;;
30096;SDS011;16915;51.466;3.610;2023-09-07T13:17:24;3.22;;;2.30;;
30096;SDS011;16915;51.466;3.610;2023-09-07T13:19:50;8.45;;;3.22;;
30096;SDS011;16915;51.466;3.610;2023-09-07T13:22:16;5.00;;;3.00;;
30096;SDS011;16915;51.466;3.610;2023-09-07T13:24:42;5.60;;;2.65;;
30096;SDS011;16915;51.466;3.610;2023-09-07T13:27:07;4.32;;;2.80;;
30096;SDS011;16915;51.466;3.610;2023-09-07T13:29:35;3.80;;;2.97;;
30096;SDS011;16915;51.466;3.610;2023-09-07T13:32:01;6.60;;;2.80;;
30096;SDS011;16915;51.466;3.610;2023-09-07T13:34:26;2.95;;;2.75;;
30096;SDS011;16915;51.466;3.610;2023-09-07T13:36:52;3.03;;;2.70;;
30096;SDS011;16915;51.466;3.610;2023-09-07T13:39:18;3.53;;;2.38;;
30096;SDS011;16915;51.466;3.610;2023-09-07T13:41:44;3.13;;;2.50;;
30096;SDS011;16915;51.466;3.610;2023-09-07T13:44:09;2.85;;;2.60;;
30096;SDS011;16915;51.466;3.610;2023-09-07T13:46:36;3.50;;;2.88;;
30096;SDS011;16915;51.466;3.610;2023-09-07T13:49:02;7.68;;;2.40;;
30096;SDS011;16915;51.466;3.610;2023-09-07T13:51:27;3.63;;;2.40;;
30096;SDS011;16915;51.466;3.610;2023-09-07T13:53:53;4.93;;;2.78;;
30096;SDS011;16915;51.466;3.610;2023-09-07T13:56:18;2.42;;;2.20;;
30096;SDS011;16915;51.466;3.610;2023-09-07T13:58:44;6.82;;;2.28;;
30096;SDS011;16915;51.466;3.610;2023-09-07T14:01:11;5.57;;;2.28;;
30096;SDS011;16915;51.466;3.610;2023-09-07T14:03:36;3.05;;;2.25;;
30096;SDS011;16915;51.466;3.610;2023-09-07T14:06:02;4.80;;;1.90;;
30096;SDS011;16915;51.466;3.610;2023-09-07T14:08:28;5.32;;;2.20;;
30096;SDS011;16915;51.466;3.610;2023-09-07T14:10:55;6.65;;;2.92;;
30096;SDS011;16915;51.466;3.610;2023-09-07T14:13:21;2.30;;;2.10;;
30096;SDS011;16915;51.466;3.610;2023-09-07T14:15:46;3.88;;;2.10;;
30096;SDS011;16915;51.466;3.610;2023-09-07T14:18:12;3.17;;;2.13;;
30096;SDS011;16915;51.466;3.610;2023-09-07T14:20:37;4.70;;;2.28;;
30096;SDS011;16915;51.466;3.610;2023-09-07T14:23:03;2.47;;;2.17;;
30096;SDS011;16915;51.466;3.610;2023-09-07T14:25:29;3.45;;;2.20;;
30096;SDS011;16915;51.466;3.610;2023-09-07T14:27:55;2.47;;;2.28;;
30096;SDS011;16915;51.466;3.610;2023-09-07T14:30:20;2.28;;;2.08;;
30096;SDS011;16915;51.466;3.610;2023-09-07T14:32:46;4.32;;;2.35;;
30096;SDS011;16915;51.466;3.610;2023-09-07T14:35:13;4.63;;;2.00;;
30096;SDS011;16915;51.466;3.610;2023-09-07T14:37:40;8.88;;;2.00;;
30096;SDS011;16915;51.466;3.610;2023-09-07T14:40:06;4.30;;;2.15;;
30096;SDS011;16915;51.466;3.610;2023-09-07T14:42:32;2.33;;;2.00;;
30096;SDS011;16915;51.466;3.610;2023-09-07T14:44:59;3.10;;;2.10;;